sensor_id;sensor_type;location;lat;lon;timestamp;P1;durP1;ratioP1;P2;durP2;ratioP2
11004;SDS011;5555;59.622;16.556;2023-07-22T00:00:47;4.80;;;1.20;;
11004;SDS011;5555;59.622;16.556;2023-07-22T00:03:13;6.17;;;1.30;;
11004;SDS011;5555;59.622;16.556;2023-07-22T00:05:39;3.67;;;0.80;;
11004;SDS011;5555;59.622;16.556;2023-07-22T00:08:05;4.00;;;1.10;;
11004;SDS011;5555;59.622;16.556;2023-07-22T00:10:31;4.77;;;1.30;;
11004;SDS011;5555;59.622;16.556;2023-07-22T00:12:56;3.93;;;1.23;;
11004;SDS011;5555;59.622;16.556;2023-07-22T00:15:22;4.27;;;1.10;;
11004;SDS011;5555;59.622;16.556;2023-07-22T00:17:49;3.50;;;1.20;;
11004;SDS011;5555;59.622;16.556;2023-07-22T00:20:15;3.47;;;1.10;;
11004;SDS011;5555;59.622;16.556;2023-07-22T00:22:41;5.87;;;1.60;;
11004;SDS011;5555;59.622;16.556;2023-07-22T00:25:09;4.23;;;1.03;;
11004;SDS011;5555;59.622;16.556;2023-07-22T00:27:36;4.23;;;1.60;;
11004;SDS011;5555;59.622;16.556;2023-07-22T00:30:03;3.20;;;1.00;;
11004;SDS011;5555;59.622;16.556;2023-07-22T00:32:30;4.37;;;1.00;;
11004;SDS011;5555;59.622;16.556;2023-07-22T00:34:55;3.63;;;1.20;;
11004;SDS011;5555;59.622;16.556;2023-07-22T00:37:23;3.40;;;1.20;;
11004;SDS011;5555;59.622;16.556;2023-07-22T00:39:48;3.30;;;1.13;;
11004;SDS011;5555;59.622;16.556;2023-07-22T00:42:14;3.37;;;1.10;;
11004;SDS011;5555;59.622;16.556;2023-07-22T00:44:40;5.60;;;1.47;;
11004;SDS011;5555;59.622;16.556;2023-07-22T00:47:05;5.37;;;1.10;;
11004;SDS011;5555;59.622;16.556;2023-07-22T00:49:31;3.93;;;1.10;;
11004;SDS011;5555;59.622;16.556;2023-07-22T00:51:58;3.40;;;1.03;;
11004;SDS011;5555;59.622;16.556;2023-07-22T00:54:27;3.23;;;1.10;;
11004;SDS011;5555;59.622;16.556;2023-07-22T00:56:52;4.27;;;1.30;;
11004;SDS011;5555;59.622;16.556;2023-07-22T00:59:19;5.63;;;1.60;;
11004;SDS011;5555;59.622;16.556;2023-07-22T01:01:46;3.73;;;1.30;;
11004;SDS011;5555;59.622;16.556;2023-07-22T01:04:13;2.10;;;0.87;;
11004;SDS011;5555;59.622;16.556;2023-07-22T01:06:40;4.80;;;1.20;;
11004;SDS011;5555;59.622;16.556;2023-07-22T01:09:08;3.53;;;1.23;;
11004;SDS011;5555;59.622;16.556;2023-07-22T01:11:34;2.83;;;1.20;;
11004;SDS011;5555;59.622;16.556;2023-07-22T01:14:00;3.97;;;1.13;;
11004;SDS011;5555;59.622;16.556;2023-07-22T01:16:26;4.90;;;1.40;;
11004;SDS011;5555;59.622;16.556;2023-07-22T01:18:53;4.37;;;1.17;;
11004;SDS011;5555;59.622;16.556;2023-07-22T01:21:20;3.67;;;1.13;;
11004;SDS011;5555;59.622;16.556;2023-07-22T01:23:47;8.60;;;1.53;;
11004;SDS011;5555;59.622;16.556;2023-07-22T01:26:13;4.20;;;1.10;;
11004;SDS011;5555;59.622;16.556;2023-07-22T01:28:39;4.87;;;1.37;;
11004;SDS011;5555;59.622;16.556;2023-07-22T01:31:05;4.10;;;1.10;;
11004;SDS011;5555;59.622;16.556;2023-07-22T01:33:31;4.73;;;1.20;;
11004;SDS011;5555;59.622;16.556;2023-07-22T01:35:57;4.27;;;1.50;;
11004;SDS011;5555;59.622;16.556;2023-07-22T01:38:23;5.00;;;1.23;;
11004;SDS011;5555;59.622;16.556;2023-07-22T01:40:49;5.00;;;1.30;;
11004;SDS011;5555;59.622;16.556;2023-07-22T01:43:14;3.63;;;1.30;;
11004;SDS011;5555;59.622;16.556;2023-07-22T01:45:40;3.53;;;1.40;;
11004;SDS011;5555;59.622;16.556;2023-07-22T01:48:06;4.60;;;1.20;;
11004;SDS011;5555;59.622;16.556;2023-07-22T01:50:32;4.27;;;1.30;;
11004;SDS011;5555;59.622;16.556;2023-07-22T01:52:57;4.53;;;1.53;;
11004;SDS011;5555;59.622;16.556;2023-07-22T01:55:23;3.70;;;1.10;;
11004;SDS011;5555;59.622;16.556;2023-07-22T01:57:49;4.60;;;1.13;;
11004;SDS011;5555;59.622;16.556;2023-07-22T02:00:14;5.30;;;1.50;;
11004;SDS011;5555;59.622;16.556;2023-07-22T02:02:43;3.63;;;1.60;;
11004;SDS011;5555;59.622;16.556;2023-07-22T02:05:09;3.60;;;1.07;;
11004;SDS011;5555;59.622;16.556;2023-07-22T02:07:37;4.90;;;1.53;;
11004;SDS011;5555;59.622;16.556;2023-07-22T02:10:03;3.17;;;1.20;;
11004;SDS011;5555;59.622;16.556;2023-07-22T02:12:30;4.53;;;1.60;;
11004;SDS011;5555;59.622;16.556;2023-07-22T02:14:56;2.90;;;1.30;;
11004;SDS011;5555;59.622;16.556;2023-07-22T02:17:21;3.57;;;1.40;;
11004;SDS011;5555;59.622;16.556;2023-07-22T02:19:48;3.30;;;1.20;;
11004;SDS011;5555;59.622;16.556;2023-07-22T02:22:14;3.87;;;1.40;;
11004;SDS011;5555;59.622;16.556;2023-07-22T02:24:40;5.70;;;1.33;;
11004;SDS011;5555;59.622;16.556;2023-07-22T02:27:05;3.67;;;1.20;;
11004;SDS011;5555;59.622;16.556;2023-07-22T02:29:33;3.40;;;1.40;;
11004;SDS011;5555;59.622;16.556;2023-07-22T02:31:59;4.10;;;1.50;;
11004;SDS011;5555;59.622;16.556;2023-07-22T02:34:25;3.20;;;1.30;;
11004;SDS011;5555;59.622;16.556;2023-07-22T02:36:51;2.13;;;1.23;;
11004;SDS011;5555;59.622;16.556;2023-07-22T02:39:16;3.77;;;1.40;;
11004;SDS011;5555;59.622;16.556;2023-07-22T02:41:42;2.97;;;1.30;;
11004;SDS011;5555;59.622;16.556;2023-07-22T02:44:08;4.07;;;1.80;;
11004;SDS011;5555;59.622;16.556;2023-07-22T02:46:33;4.57;;;1.40;;
11004;SDS011;5555;59.622;16.556;2023-07-22T02:48:59;5.43;;;1.63;;
11004;SDS011;5555;59.622;16.556;2023-07-22T02:51:25;5.97;;;1.50;;
11004;SDS011;5555;59.622;16.556;2023-07-22T02:53:50;7.17;;;1.60;;
11004;SDS011;5555;59.622;16.556;2023-07-22T02:56:16;4.53;;;1.40;;
11004;SDS011;5555;59.622;16.556;2023-07-22T02:58:42;4.87;;;1.47;;
11004;SDS011;5555;59.622;16.556;2023-07-22T03:01:08;4.53;;;1.40;;
11004;SDS011;5555;59.622;16.556;2023-07-22T03:03:35;4.57;;;1.50;;
11004;SDS011;5555;59.622;16.556;2023-07-22T03:06:01;3.10;;;1.30;;
11004;SDS011;5555;59.622;16.556;2023-07-22T03:08:28;5.87;;;1.67;;
11004;SDS011;5555;59.622;16.556;2023-07-22T03:10:54;4.93;;;1.70;;
11004;SDS011;5555;59.622;16.556;2023-07-22T03:13:20;5.07;;;1.30;;
11004;SDS011;5555;59.622;16.556;2023-07-22T03:15:46;7.07;;;1.70;;
11004;SDS011;5555;59.622;16.556;2023-07-22T03:18:11;4.37;;;1.60;;
11004;SDS011;5555;59.622;16.556;2023-07-22T03:20:37;5.30;;;1.60;;
11004;SDS011;5555;59.622;16.556;2023-07-22T03:23:04;6.93;;;1.50;;
11004;SDS011;5555;59.622;16.556;2023-07-22T03:25:31;4.13;;;1.53;;
11004;SDS011;5555;59.622;16.556;2023-07-22T03:27:58;3.00;;;1.47;;
11004;SDS011;5555;59.622;16.556;2023-07-22T03:30:29;6.20;;;1.20;;
11004;SDS011;5555;59.622;16.556;2023-07-22T03:32:54;3.93;;;1.57;;
11004;SDS011;5555;59.622;16.556;2023-07-22T03:35:20;3.33;;;1.30;;
11004;SDS011;5555;59.622;16.556;2023-07-22T03:37:46;3.17;;;1.30;;
11004;SDS011;5555;59.622;16.556;2023-07-22T03:40:11;5.53;;;1.50;;
11004;SDS011;5555;59.622;16.556;2023-07-22T03:42:50;4.13;;;1.20;;
11004;SDS011;5555;59.622;16.556;2023-07-22T03:45:17;3.33;;;1.40;;
11004;SDS011;5555;59.622;16.556;2023-07-22T03:47:44;4.97;;;1.77;;
11004;SDS011;5555;59.622;16.556;2023-07-22T03:50:10;3.90;;;1.23;;
11004;SDS011;5555;59.622;16.556;2023-07-22T03:52:36;3.87;;;1.43;;
11004;SDS011;5555;59.622;16.556;2023-07-22T03:55:02;4.87;;;1.53;;
11004;SDS011;5555;59.622;16.556;2023-07-22T03:57:28;4.37;;;1.63;;
11004;SDS011;5555;59.622;16.556;2023-07-22T03:59:54;3.27;;;1.30;;
11004;SDS011;5555;59.622;16.556;2023-07-22T04:02:20;3.67;;;1.37;;
11004;SDS011;5555;59.622;16.556;2023-07-22T04:04:46;5.00;;;1.37;;
11004;SDS011;5555;59.622;16.556;2023-07-22T04:07:12;4.10;;;1.50;;
11004;SDS011;5555;59.622;16.556;2023-07-22T04:09:37;4.17;;;1.23;;
11004;SDS011;5555;59.622;16.556;2023-07-22T04:12:03;4.93;;;1.70;;
11004;SDS011;5555;59.622;16.556;2023-07-22T04:14:29;4.00;;;1.67;;
11004;SDS011;5555;59.622;16.556;2023-07-22T04:16:55;3.60;;;1.53;;
11004;SDS011;5555;59.622;16.556;2023-07-22T04:19:21;4.50;;;1.43;;
11004;SDS011;5555;59.622;16.556;2023-07-22T04:21:46;2.60;;;1.27;;
11004;SDS011;5555;59.622;16.556;2023-07-22T04:24:12;5.10;;;1.40;;
11004;SDS011;5555;59.622;16.556;2023-07-22T04:26:40;5.73;;;1.40;;
11004;SDS011;5555;59.622;16.556;2023-07-22T04:29:10;5.37;;;1.40;;
11004;SDS011;5555;59.622;16.556;2023-07-22T04:31:37;5.87;;;1.57;;
11004;SDS011;5555;59.622;16.556;2023-07-22T04:34:03;7.10;;;1.77;;
11004;SDS011;5555;59.622;16.556;2023-07-22T04:36:28;3.70;;;1.27;;
11004;SDS011;5555;59.622;16.556;2023-07-22T04:38:54;4.30;;;1.10;;
11004;SDS011;5555;59.622;16.556;2023-07-22T04:41:19;3.60;;;1.50;;
11004;SDS011;5555;59.622;16.556;2023-07-22T04:43:46;4.70;;;1.30;;
11004;SDS011;5555;59.622;16.556;2023-07-22T04:46:12;4.70;;;1.70;;
11004;SDS011;5555;59.622;16.556;2023-07-22T04:48:38;4.73;;;1.47;;
11004;SDS011;5555;59.622;16.556;2023-07-22T04:51:04;5.07;;;1.67;;
11004;SDS011;5555;59.622;16.556;2023-07-22T04:53:29;6.37;;;1.33;;
11004;SDS011;5555;59.622;16.556;2023-07-22T04:55:55;5.03;;;1.70;;
11004;SDS011;5555;59.622;16.556;2023-07-22T04:58:21;5.73;;;1.43;;
11004;SDS011;5555;59.622;16.556;2023-07-22T05:00:46;3.80;;;1.30;;
11004;SDS011;5555;59.622;16.556;2023-07-22T05:03:13;3.90;;;1.60;;
11004;SDS011;5555;59.622;16.556;2023-07-22T05:05:39;5.03;;;1.60;;
11004;SDS011;5555;59.622;16.556;2023-07-22T05:08:05;5.80;;;1.80;;
11004;SDS011;5555;59.622;16.556;2023-07-22T05:10:33;6.17;;;1.50;;
11004;SDS011;5555;59.622;16.556;2023-07-22T05:12:59;2.83;;;1.40;;
11004;SDS011;5555;59.622;16.556;2023-07-22T05:15:24;4.80;;;1.53;;
11004;SDS011;5555;59.622;16.556;2023-07-22T05:17:50;5.57;;;1.40;;
11004;SDS011;5555;59.622;16.556;2023-07-22T05:20:16;4.77;;;1.53;;
11004;SDS011;5555;59.622;16.556;2023-07-22T05:22:42;6.17;;;1.63;;
11004;SDS011;5555;59.622;16.556;2023-07-22T05:25:08;3.57;;;1.33;;
11004;SDS011;5555;59.622;16.556;2023-07-22T05:27:37;4.67;;;1.23;;
11004;SDS011;5555;59.622;16.556;2023-07-22T05:30:04;4.40;;;1.13;;
11004;SDS011;5555;59.622;16.556;2023-07-22T05:32:30;4.47;;;1.10;;
11004;SDS011;5555;59.622;16.556;2023-07-22T05:34:56;4.70;;;1.30;;
11004;SDS011;5555;59.622;16.556;2023-07-22T05:37:22;6.80;;;1.67;;
11004;SDS011;5555;59.622;16.556;2023-07-22T05:39:51;3.03;;;1.50;;
11004;SDS011;5555;59.622;16.556;2023-07-22T05:42:17;3.67;;;1.10;;
11004;SDS011;5555;59.622;16.556;2023-07-22T05:44:43;4.80;;;1.53;;
11004;SDS011;5555;59.622;16.556;2023-07-22T05:47:09;6.10;;;1.40;;
11004;SDS011;5555;59.622;16.556;2023-07-22T05:49:34;4.23;;;1.10;;
11004;SDS011;5555;59.622;16.556;2023-07-22T05:52:00;5.07;;;1.37;;
11004;SDS011;5555;59.622;16.556;2023-07-22T05:54:25;4.77;;;1.40;;
11004;SDS011;5555;59.622;16.556;2023-07-22T05:56:51;4.00;;;1.30;;
11004;SDS011;5555;59.622;16.556;2023-07-22T05:59:17;3.23;;;1.20;;
11004;SDS011;5555;59.622;16.556;2023-07-22T06:01:42;2.87;;;1.30;;
11004;SDS011;5555;59.622;16.556;2023-07-22T06:04:08;4.97;;;1.40;;
11004;SDS011;5555;59.622;16.556;2023-07-22T06:06:34;4.90;;;1.63;;
11004;SDS011;5555;59.622;16.556;2023-07-22T06:09:00;6.23;;;1.47;;
11004;SDS011;5555;59.622;16.556;2023-07-22T06:11:26;5.23;;;1.80;;
11004;SDS011;5555;59.622;16.556;2023-07-22T06:13:51;4.20;;;1.40;;
11004;SDS011;5555;59.622;16.556;2023-07-22T06:16:17;3.77;;;1.37;;
11004;SDS011;5555;59.622;16.556;2023-07-22T06:18:42;5.13;;;1.27;;
11004;SDS011;5555;59.622;16.556;2023-07-22T06:21:08;5.43;;;1.10;;
11004;SDS011;5555;59.622;16.556;2023-07-22T06:23:34;4.90;;;1.13;;
11004;SDS011;5555;59.622;16.556;2023-07-22T06:25:59;4.00;;;1.53;;
11004;SDS011;5555;59.622;16.556;2023-07-22T06:28:25;3.27;;;1.20;;
11004;SDS011;5555;59.622;16.556;2023-07-22T06:30:50;3.57;;;1.10;;
11004;SDS011;5555;59.622;16.556;2023-07-22T06:33:16;4.53;;;1.03;;
11004;SDS011;5555;59.622;16.556;2023-07-22T06:35:42;4.27;;;1.50;;
11004;SDS011;5555;59.622;16.556;2023-07-22T06:38:07;6.07;;;1.47;;
11004;SDS011;5555;59.622;16.556;2023-07-22T06:40:33;6.07;;;1.60;;
11004;SDS011;5555;59.622;16.556;2023-07-22T06:42:58;3.43;;;1.30;;
11004;SDS011;5555;59.622;16.556;2023-07-22T06:45:24;3.13;;;0.93;;
11004;SDS011;5555;59.622;16.556;2023-07-22T06:47:50;3.70;;;1.47;;
11004;SDS011;5555;59.622;16.556;2023-07-22T06:50:15;3.07;;;1.13;;
11004;SDS011;5555;59.622;16.556;2023-07-22T06:52:41;5.93;;;1.00;;
11004;SDS011;5555;59.622;16.556;2023-07-22T06:55:06;3.50;;;1.27;;
11004;SDS011;5555;59.622;16.556;2023-07-22T06:57:32;3.60;;;1.20;;
11004;SDS011;5555;59.622;16.556;2023-07-22T06:59:59;8.40;;;1.53;;
11004;SDS011;5555;59.622;16.556;2023-07-22T07:02:25;4.40;;;1.43;;
11004;SDS011;5555;59.622;16.556;2023-07-22T07:04:50;3.83;;;1.47;;
11004;SDS011;5555;59.622;16.556;2023-07-22T07:07:16;4.07;;;1.17;;
11004;SDS011;5555;59.622;16.556;2023-07-22T07:09:42;3.63;;;1.00;;
11004;SDS011;5555;59.622;16.556;2023-07-22T07:12:08;3.67;;;1.40;;
11004;SDS011;5555;59.622;16.556;2023-07-22T07:14:34;3.27;;;1.33;;
11004;SDS011;5555;59.622;16.556;2023-07-22T07:17:00;4.20;;;1.10;;
11004;SDS011;5555;59.622;16.556;2023-07-22T07:19:26;4.00;;;1.20;;
11004;SDS011;5555;59.622;16.556;2023-07-22T07:21:52;3.33;;;1.03;;
11004;SDS011;5555;59.622;16.556;2023-07-22T07:24:18;5.40;;;1.33;;
11004;SDS011;5555;59.622;16.556;2023-07-22T07:26:44;2.33;;;1.10;;
11004;SDS011;5555;59.622;16.556;2023-07-22T07:29:10;3.33;;;1.07;;
11004;SDS011;5555;59.622;16.556;2023-07-22T07:31:36;1.67;;;0.87;;
11004;SDS011;5555;59.622;16.556;2023-07-22T07:34:02;2.80;;;1.30;;
11004;SDS011;5555;59.622;16.556;2023-07-22T07:36:28;3.43;;;1.30;;
11004;SDS011;5555;59.622;16.556;2023-07-22T07:38:53;3.27;;;1.17;;
11004;SDS011;5555;59.622;16.556;2023-07-22T07:41:19;3.63;;;1.00;;
11004;SDS011;5555;59.622;16.556;2023-07-22T07:43:45;3.67;;;1.00;;
11004;SDS011;5555;59.622;16.556;2023-07-22T07:48:45;2.73;;;1.00;;
11004;SDS011;5555;59.622;16.556;2023-07-22T07:51:12;4.00;;;0.90;;
11004;SDS011;5555;59.622;16.556;2023-07-22T07:53:41;1.80;;;0.87;;
11004;SDS011;5555;59.622;16.556;2023-07-22T07:56:09;2.63;;;1.00;;
11004;SDS011;5555;59.622;16.556;2023-07-22T07:58:35;3.50;;;1.00;;
11004;SDS011;5555;59.622;16.556;2023-07-22T08:01:01;3.43;;;1.03;;
11004;SDS011;5555;59.622;16.556;2023-07-22T08:03:27;2.23;;;1.03;;
11004;SDS011;5555;59.622;16.556;2023-07-22T08:05:53;3.30;;;1.20;;
11004;SDS011;5555;59.622;16.556;2023-07-22T08:08:19;2.70;;;0.97;;
11004;SDS011;5555;59.622;16.556;2023-07-22T08:10:45;4.67;;;1.03;;
11004;SDS011;5555;59.622;16.556;2023-07-22T08:13:10;3.77;;;1.03;;
11004;SDS011;5555;59.622;16.556;2023-07-22T08:15:37;1.17;;;0.80;;
11004;SDS011;5555;59.622;16.556;2023-07-22T08:18:02;6.17;;;1.37;;
11004;SDS011;5555;59.622;16.556;2023-07-22T08:20:29;3.37;;;1.20;;
11004;SDS011;5555;59.622;16.556;2023-07-22T08:22:55;2.53;;;1.13;;
11004;SDS011;5555;59.622;16.556;2023-07-22T08:25:21;3.43;;;1.00;;
11004;SDS011;5555;59.622;16.556;2023-07-22T08:27:47;4.13;;;1.20;;
11004;SDS011;5555;59.622;16.556;2023-07-22T08:30:12;2.43;;;1.10;;
11004;SDS011;5555;59.622;16.556;2023-07-22T08:32:38;3.07;;;0.73;;
11004;SDS011;5555;59.622;16.556;2023-07-22T08:35:03;3.27;;;1.00;;
11004;SDS011;5555;59.622;16.556;2023-07-22T08:37:30;2.90;;;1.00;;
11004;SDS011;5555;59.622;16.556;2023-07-22T08:39:56;2.67;;;1.00;;
11004;SDS011;5555;59.622;16.556;2023-07-22T08:42:21;3.27;;;0.90;;
11004;SDS011;5555;59.622;16.556;2023-07-22T08:44:50;3.03;;;0.77;;
11004;SDS011;5555;59.622;16.556;2023-07-22T08:47:22;2.43;;;0.87;;
11004;SDS011;5555;59.622;16.556;2023-07-22T08:49:51;3.10;;;1.13;;
11004;SDS011;5555;59.622;16.556;2023-07-22T08:52:18;2.10;;;0.87;;
11004;SDS011;5555;59.622;16.556;2023-07-22T08:54:44;2.47;;;0.80;;
11004;SDS011;5555;59.622;16.556;2023-07-22T08:57:11;2.37;;;0.90;;
11004;SDS011;5555;59.622;16.556;2023-07-22T08:59:37;3.03;;;0.93;;
11004;SDS011;5555;59.622;16.556;2023-07-22T09:02:03;1.90;;;1.00;;
11004;SDS011;5555;59.622;16.556;2023-07-22T09:04:30;3.07;;;0.83;;
11004;SDS011;5555;59.622;16.556;2023-07-22T09:06:56;2.77;;;1.10;;
11004;SDS011;5555;59.622;16.556;2023-07-22T09:09:22;3.30;;;1.00;;
11004;SDS011;5555;59.622;16.556;2023-07-22T09:11:49;1.70;;;0.90;;
11004;SDS011;5555;59.622;16.556;2023-07-22T09:14:17;1.40;;;0.60;;
11004;SDS011;5555;59.622;16.556;2023-07-22T09:16:44;2.53;;;0.80;;
11004;SDS011;5555;59.622;16.556;2023-07-22T09:19:10;2.67;;;1.07;;
11004;SDS011;5555;59.622;16.556;2023-07-22T09:21:36;1.90;;;0.80;;
11004;SDS011;5555;59.622;16.556;2023-07-22T09:24:02;2.47;;;0.77;;
11004;SDS011;5555;59.622;16.556;2023-07-22T09:26:44;1.77;;;0.73;;
11004;SDS011;5555;59.622;16.556;2023-07-22T09:29:10;3.47;;;0.83;;
11004;SDS011;5555;59.622;16.556;2023-07-22T09:31:44;1.73;;;0.90;;
11004;SDS011;5555;59.622;16.556;2023-07-22T09:34:17;1.87;;;0.80;;
11004;SDS011;5555;59.622;16.556;2023-07-22T09:36:50;2.77;;;0.60;;
11004;SDS011;5555;59.622;16.556;2023-07-22T09:39:16;1.47;;;0.60;;
11004;SDS011;5555;59.622;16.556;2023-07-22T09:41:43;2.57;;;0.93;;
11004;SDS011;5555;59.622;16.556;2023-07-22T09:44:09;1.60;;;0.73;;
11004;SDS011;5555;59.622;16.556;2023-07-22T09:46:37;2.30;;;0.80;;
11004;SDS011;5555;59.622;16.556;2023-07-22T09:49:04;2.93;;;0.70;;
11004;SDS011;5555;59.622;16.556;2023-07-22T09:51:34;2.57;;;0.80;;
11004;SDS011;5555;59.622;16.556;2023-07-22T09:54:02;3.50;;;1.20;;
11004;SDS011;5555;59.622;16.556;2023-07-22T09:56:30;2.57;;;0.80;;
11004;SDS011;5555;59.622;16.556;2023-07-22T09:58:57;2.03;;;0.97;;
11004;SDS011;5555;59.622;16.556;2023-07-22T10:01:24;3.03;;;1.00;;
11004;SDS011;5555;59.622;16.556;2023-07-22T10:03:54;3.43;;;1.10;;
11004;SDS011;5555;59.622;16.556;2023-07-22T10:06:22;1.67;;;0.80;;
11004;SDS011;5555;59.622;16.556;2023-07-22T10:08:51;2.37;;;0.80;;
11004;SDS011;5555;59.622;16.556;2023-07-22T10:11:17;2.33;;;1.00;;
11004;SDS011;5555;59.622;16.556;2023-07-22T10:13:43;2.73;;;0.97;;
11004;SDS011;5555;59.622;16.556;2023-07-22T10:16:10;1.97;;;0.90;;
11004;SDS011;5555;59.622;16.556;2023-07-22T10:18:37;2.20;;;0.93;;
11004;SDS011;5555;59.622;16.556;2023-07-22T10:21:06;2.33;;;0.87;;
11004;SDS011;5555;59.622;16.556;2023-07-22T10:23:32;1.70;;;1.00;;
11004;SDS011;5555;59.622;16.556;2023-07-22T10:25:58;2.07;;;0.87;;
11004;SDS011;5555;59.622;16.556;2023-07-22T10:28:25;1.80;;;1.10;;
11004;SDS011;5555;59.622;16.556;2023-07-22T10:30:53;2.40;;;1.00;;
11004;SDS011;5555;59.622;16.556;2023-07-22T10:33:19;1.93;;;0.80;;
11004;SDS011;5555;59.622;16.556;2023-07-22T10:36:01;1.70;;;1.07;;
11004;SDS011;5555;59.622;16.556;2023-07-22T10:38:31;2.17;;;0.90;;
11004;SDS011;5555;59.622;16.556;2023-07-22T10:40:57;1.80;;;0.80;;
11004;SDS011;5555;59.622;16.556;2023-07-22T10:43:33;2.33;;;0.80;;
11004;SDS011;5555;59.622;16.556;2023-07-22T10:46:09;2.23;;;0.97;;
11004;SDS011;5555;59.622;16.556;2023-07-22T10:48:39;2.00;;;0.70;;
11004;SDS011;5555;59.622;16.556;2023-07-22T10:51:09;1.97;;;0.80;;
11004;SDS011;5555;59.622;16.556;2023-07-22T11:11:59;3.83;;;0.90;;
11004;SDS011;5555;59.622;16.556;2023-07-22T11:14:26;1.60;;;0.87;;
11004;SDS011;5555;59.622;16.556;2023-07-22T11:16:52;2.17;;;0.87;;
11004;SDS011;5555;59.622;16.556;2023-07-22T11:19:21;3.30;;;1.00;;
11004;SDS011;5555;59.622;16.556;2023-07-22T11:21:51;3.20;;;1.10;;
11004;SDS011;5555;59.622;16.556;2023-07-22T11:24:19;1.30;;;0.80;;
11004;SDS011;5555;59.622;16.556;2023-07-22T11:26:45;1.77;;;0.90;;
11004;SDS011;5555;59.622;16.556;2023-07-22T11:29:12;1.23;;;0.60;;
11004;SDS011;5555;59.622;16.556;2023-07-22T11:31:48;1.13;;;0.87;;
11004;SDS011;5555;59.622;16.556;2023-07-22T11:34:16;2.20;;;1.00;;
11004;SDS011;5555;59.622;16.556;2023-07-22T11:36:43;4.47;;;0.97;;
11004;SDS011;5555;59.622;16.556;2023-07-22T11:39:11;1.83;;;0.97;;
11004;SDS011;5555;59.622;16.556;2023-07-22T11:41:38;1.77;;;0.80;;
11004;SDS011;5555;59.622;16.556;2023-07-22T11:44:07;2.73;;;0.73;;
11004;SDS011;5555;59.622;16.556;2023-07-22T11:46:52;2.37;;;0.97;;
11004;SDS011;5555;59.622;16.556;2023-07-22T11:51:59;1.67;;;0.80;;
11004;SDS011;5555;59.622;16.556;2023-07-22T11:54:27;4.23;;;1.03;;
11004;SDS011;5555;59.622;16.556;2023-07-22T11:56:54;3.03;;;0.93;;
11004;SDS011;5555;59.622;16.556;2023-07-22T11:59:33;2.20;;;0.90;;
11004;SDS011;5555;59.622;16.556;2023-07-22T12:02:03;1.33;;;0.90;;
11004;SDS011;5555;59.622;16.556;2023-07-22T12:04:30;1.27;;;0.73;;
11004;SDS011;5555;59.622;16.556;2023-07-22T12:07:00;2.27;;;0.80;;
11004;SDS011;5555;59.622;16.556;2023-07-22T12:09:26;2.17;;;0.93;;
11004;SDS011;5555;59.622;16.556;2023-07-22T12:11:56;1.03;;;0.83;;
11004;SDS011;5555;59.622;16.556;2023-07-22T12:14:24;0.93;;;0.63;;
11004;SDS011;5555;59.622;16.556;2023-07-22T12:16:52;1.37;;;0.80;;
11004;SDS011;5555;59.622;16.556;2023-07-22T12:19:22;3.57;;;1.00;;
11004;SDS011;5555;59.622;16.556;2023-07-22T12:21:48;1.90;;;0.73;;
11004;SDS011;5555;59.622;16.556;2023-07-22T12:24:14;1.53;;;0.90;;
11004;SDS011;5555;59.622;16.556;2023-07-22T12:26:40;1.70;;;1.00;;
11004;SDS011;5555;59.622;16.556;2023-07-22T12:29:07;1.63;;;0.70;;
11004;SDS011;5555;59.622;16.556;2023-07-22T12:31:33;0.87;;;0.57;;
11004;SDS011;5555;59.622;16.556;2023-07-22T12:33:59;3.00;;;0.80;;
11004;SDS011;5555;59.622;16.556;2023-07-22T12:36:24;1.93;;;0.93;;
11004;SDS011;5555;59.622;16.556;2023-07-22T12:38:50;2.07;;;0.50;;
11004;SDS011;5555;59.622;16.556;2023-07-22T12:41:16;1.43;;;0.50;;
11004;SDS011;5555;59.622;16.556;2023-07-22T12:43:42;1.13;;;0.80;;
11004;SDS011;5555;59.622;16.556;2023-07-22T12:46:07;1.80;;;0.70;;
11004;SDS011;5555;59.622;16.556;2023-07-22T12:48:33;1.07;;;0.70;;
11004;SDS011;5555;59.622;16.556;2023-07-22T12:50:58;1.03;;;0.70;;
11004;SDS011;5555;59.622;16.556;2023-07-22T12:53:25;1.02;;;0.80;;
11004;SDS011;5555;59.622;16.556;2023-07-22T12:55:51;1.13;;;0.80;;
11004;SDS011;5555;59.622;16.556;2023-07-22T12:58:16;2.43;;;0.87;;
11004;SDS011;5555;59.622;16.556;2023-07-22T13:00:42;1.43;;;0.83;;
11004;SDS011;5555;59.622;16.556;2023-07-22T13:03:08;0.88;;;0.77;;
11004;SDS011;5555;59.622;16.556;2023-07-22T13:05:33;3.75;;;0.73;;
11004;SDS011;5555;59.622;16.556;2023-07-22T13:07:59;2.33;;;0.98;;
11004;SDS011;5555;59.622;16.556;2023-07-22T13:10:26;0.75;;;0.60;;
11004;SDS011;5555;59.622;16.556;2023-07-22T13:12:53;1.63;;;0.73;;
11004;SDS011;5555;59.622;16.556;2023-07-22T13:15:19;1.33;;;0.70;;
11004;SDS011;5555;59.622;16.556;2023-07-22T13:17:45;1.17;;;0.85;;
11004;SDS011;5555;59.622;16.556;2023-07-22T13:20:11;1.60;;;0.70;;
11004;SDS011;5555;59.622;16.556;2023-07-22T13:22:39;0.68;;;0.57;;
11004;SDS011;5555;59.622;16.556;2023-07-22T13:25:05;2.13;;;0.73;;
11004;SDS011;5555;59.622;16.556;2023-07-22T13:27:31;1.58;;;0.90;;
11004;SDS011;5555;59.622;16.556;2023-07-22T13:29:57;1.30;;;0.70;;
11004;SDS011;5555;59.622;16.556;2023-07-22T13:32:23;1.77;;;0.85;;
11004;SDS011;5555;59.622;16.556;2023-07-22T13:34:49;1.95;;;0.80;;
11004;SDS011;5555;59.622;16.556;2023-07-22T13:37:14;1.30;;;0.80;;
11004;SDS011;5555;59.622;16.556;2023-07-22T13:39:41;2.07;;;0.90;;
11004;SDS011;5555;59.622;16.556;2023-07-22T13:42:06;1.20;;;0.80;;
11004;SDS011;5555;59.622;16.556;2023-07-22T13:44:32;1.30;;;0.90;;
11004;SDS011;5555;59.622;16.556;2023-07-22T13:46:58;1.30;;;0.85;;
11004;SDS011;5555;59.622;16.556;2023-07-22T13:49:24;1.48;;;1.00;;
11004;SDS011;5555;59.622;16.556;2023-07-22T13:51:50;2.67;;;0.80;;
11004;SDS011;5555;59.622;16.556;2023-07-22T13:54:15;1.05;;;0.70;;
11004;SDS011;5555;59.622;16.556;2023-07-22T13:56:41;1.02;;;0.65;;
11004;SDS011;5555;59.622;16.556;2023-07-22T13:59:08;1.10;;;0.70;;
11004;SDS011;5555;59.622;16.556;2023-07-22T14:01:34;1.33;;;0.85;;
11004;SDS011;5555;59.622;16.556;2023-07-22T14:04:00;2.00;;;0.90;;
11004;SDS011;5555;59.622;16.556;2023-07-22T14:06:26;1.67;;;0.97;;
11004;SDS011;5555;59.622;16.556;2023-07-22T14:08:51;2.70;;;1.00;;
11004;SDS011;5555;59.622;16.556;2023-07-22T14:11:17;1.20;;;0.80;;
11004;SDS011;5555;59.622;16.556;2023-07-22T14:13:43;1.37;;;0.90;;
11004;SDS011;5555;59.622;16.556;2023-07-22T14:16:09;1.60;;;0.90;;
11004;SDS011;5555;59.622;16.556;2023-07-22T14:18:34;1.20;;;1.00;;
11004;SDS011;5555;59.622;16.556;2023-07-22T14:21:00;1.53;;;1.33;;
11004;SDS011;5555;59.622;16.556;2023-07-22T14:23:26;2.97;;;1.60;;
11004;SDS011;5555;59.622;16.556;2023-07-22T14:25:51;3.73;;;1.50;;
11004;SDS011;5555;59.622;16.556;2023-07-22T14:28:17;2.40;;;1.47;;
11004;SDS011;5555;59.622;16.556;2023-07-22T14:30:42;2.10;;;1.60;;
11004;SDS011;5555;59.622;16.556;2023-07-22T14:33:08;1.57;;;1.47;;
11004;SDS011;5555;59.622;16.556;2023-07-22T14:35:34;2.88;;;1.50;;
11004;SDS011;5555;59.622;16.556;2023-07-22T14:38:00;1.83;;;1.15;;
11004;SDS011;5555;59.622;16.556;2023-07-22T14:40:26;3.15;;;1.40;;
11004;SDS011;5555;59.622;16.556;2023-07-22T14:42:51;1.77;;;1.27;;
11004;SDS011;5555;59.622;16.556;2023-07-22T14:45:18;1.50;;;1.17;;
11004;SDS011;5555;59.622;16.556;2023-07-22T14:47:43;1.88;;;1.15;;
11004;SDS011;5555;59.622;16.556;2023-07-22T14:50:09;1.30;;;1.20;;
11004;SDS011;5555;59.622;16.556;2023-07-22T14:52:36;2.47;;;1.20;;
11004;SDS011;5555;59.622;16.556;2023-07-22T14:55:01;1.77;;;1.35;;
11004;SDS011;5555;59.622;16.556;2023-07-22T14:57:27;1.42;;;1.25;;
11004;SDS011;5555;59.622;16.556;2023-07-22T14:59:55;1.77;;;1.17;;
11004;SDS011;5555;59.622;16.556;2023-07-22T15:02:21;2.25;;;1.30;;
11004;SDS011;5555;59.622;16.556;2023-07-22T15:04:47;2.40;;;1.20;;
11004;SDS011;5555;59.622;16.556;2023-07-22T15:07:13;2.22;;;1.25;;